Israelandia, Brazil
Current Conditions -  °F | °C
As of 6:00 PM on Sunday 21 Dec 2014 (Local Time) from SBGO Reporting Station
Few Clouds Few Clouds  
Wind Chill: 79°   Ceiling: Unl
Heat Index: 81°   Visibility: 6mi
Dew Point: 64°   Wind: 12mph
Humidity: 61%   Direction: 270°W
Pressure: 29.91"   Gusts: NA
Location:  16.33°S, 50.91°W
Report Text: SBGO 212000Z 27010KT 9999 FEW030 FEW040TCU 26/18 Q1013
Loading
Personal Weather Stations






























Interactive Weather Map New forecast layout! Learn more

10-Day Weather Forecast

Advertisements
Track Severe Weather on mobile